Terminal Aerodrome Forecast
Issued by NWS Grand Forks, ND

Home | Current Version | Previous Version | Text Only | Print | Product List | Glossary On
Versions: 1 2 3 4 5 6 7 8 9 10 11 12 13 14 15 16 17 18 19 20
859
FTUS43 KFGF 091732
TAFGFK
TAF
KGFK 091732Z 0918/1018 31009KT P6SM BKN025
     FM100000 30007KT P6SM SCT025
     FM101000 29004KT P6SM BKN025
     FM101300 24004KT P6SM BKN040
     FM101400 VRB03KT P6SM BKN035=

USA.gov is the U.S. government's official web portal to all federal, state and local government web resources and services.